createdAt,value
2023-05-24T00:01:29.241Z,9.15
2023-05-24T00:04:00.918Z,9.15
2023-05-24T00:06:34.818Z,9.26
2023-05-24T00:09:06.169Z,9.25
2023-05-24T00:11:37.549Z,9.25
2023-05-24T00:14:08.957Z,9.26
2023-05-24T00:16:41.393Z,9.08
2023-05-24T00:19:18.379Z,9.01
2023-05-24T00:21:49.981Z,9.20
2023-05-24T00:24:21.634Z,9.10
2023-05-24T00:26:53.014Z,9.14
2023-05-24T00:29:24.429Z,9.15
2023-05-24T00:31:55.881Z,9.21
2023-05-24T00:34:27.222Z,9.19
2023-05-24T00:36:58.630Z,9.31
2023-05-24T00:39:29.945Z,9.32
2023-05-24T00:42:02.166Z,9.39
2023-05-24T00:44:33.483Z,9.40
2023-05-24T00:47:05.258Z,9.37
2023-05-24T00:49:36.712Z,9.34
2023-05-24T00:52:08.916Z,9.33
2023-05-24T00:54:40.770Z,9.34
2023-05-24T00:57:14.051Z,9.36
2023-05-24T00:59:46.270Z,9.38
2023-05-24T01:02:18.387Z,9.38
2023-05-24T01:04:49.768Z,9.36
2023-05-24T01:07:54.404Z,9.51
2023-05-24T01:10:39.208Z,9.54
2023-05-24T01:13:23.541Z,9.54
2023-05-24T01:16:07.637Z,9.55
2023-05-24T01:18:44.201Z,9.52
2023-05-24T01:21:18.543Z,9.56
2023-05-24T01:24:22.660Z,9.56
2023-05-24T01:27:07.612Z,9.57
2023-05-24T01:29:39.186Z,9.34
2023-05-24T01:32:10.544Z,9.48
2023-05-24T01:34:41.873Z,9.46
2023-05-24T01:37:13.267Z,9.44
2023-05-24T01:39:44.729Z,9.43
2023-05-24T01:43:00.651Z,9.39
2023-05-24T01:45:39.567Z,9.23
2023-05-24T01:48:31.126Z,9.30
2023-05-24T01:51:07.742Z,9.28
2023-05-24T01:53:44.804Z,9.28
2023-05-24T01:56:19.480Z,9.30
2023-05-24T01:58:53.286Z,9.34
2023-05-24T02:01:24.971Z,9.34
2023-05-24T02:03:56.356Z,9.32
2023-05-24T02:06:27.780Z,9.27
2023-05-24T02:08:59.099Z,9.24
2023-05-24T02:11:30.544Z,9.14
2023-05-24T02:14:01.874Z,9.12
2023-05-24T02:16:33.350Z,9.11
2023-05-24T02:19:04.675Z,9.10
2023-05-24T02:21:36.389Z,8.97
2023-05-24T02:24:07.952Z,9.06
2023-05-24T02:26:39.374Z,9.13
2023-05-24T02:29:10.782Z,9.00
2023-05-24T02:31:42.520Z,9.08
2023-05-24T02:34:13.873Z,9.20
2023-05-24T02:36:45.710Z,9.25
2023-05-24T02:39:17.621Z,9.30
2023-05-24T02:41:51.024Z,9.31
2023-05-24T02:44:22.352Z,9.29
2023-05-24T02:46:53.703Z,9.32
2023-05-24T02:49:25.008Z,9.34
2023-05-24T02:51:56.328Z,9.34
2023-05-24T02:54:27.648Z,9.35
2023-05-24T02:56:59.100Z,9.37
2023-05-24T02:59:31.148Z,9.38
2023-05-24T03:02:02.608Z,9.40
2023-05-24T03:04:34.041Z,9.36
2023-05-24T03:07:05.960Z,9.38
2023-05-24T03:09:37.343Z,9.40
2023-05-24T03:12:08.837Z,9.42
2023-05-24T03:14:40.217Z,9.43
2023-05-24T03:17:11.548Z,9.33
2023-05-24T03:19:42.847Z,9.47
2023-05-24T03:22:14.176Z,9.52
2023-05-24T03:24:46.330Z,9.55
2023-05-24T03:27:17.655Z,9.55
2023-05-24T03:29:49.056Z,9.55
2023-05-24T03:32:20.373Z,9.46
2023-05-24T03:34:51.813Z,9.55
2023-05-24T03:37:23.178Z,9.56
2023-05-24T03:39:54.504Z,9.60
2023-05-24T03:42:25.902Z,9.60
2023-05-24T03:44:57.237Z,9.64
2023-05-24T03:47:28.613Z,9.70
2023-05-24T03:50:00.138Z,9.74
2023-05-24T03:52:31.555Z,9.69
2023-05-24T03:55:02.895Z,9.68
2023-05-24T03:57:34.273Z,9.75
2023-05-24T04:00:07.375Z,9.74
2023-05-24T04:02:38.868Z,9.79
2023-05-24T04:05:10.808Z,9.82
2023-05-24T04:07:43.736Z,9.83
2023-05-24T04:10:15.090Z,9.74
2023-05-24T04:12:46.456Z,9.79
2023-05-24T04:15:17.860Z,9.81
2023-05-24T04:17:54.867Z,9.82
2023-05-24T04:20:27.742Z,9.80
2023-05-24T04:22:59.249Z,9.82
2023-05-24T04:25:30.677Z,9.86
2023-05-24T04:28:04.626Z,9.88
2023-05-24T04:30:36.694Z,9.86
2023-05-24T04:33:08.388Z,9.87
2023-05-24T04:35:40.689Z,9.90
2023-05-24T04:38:12.698Z,9.97
2023-05-24T04:40:44.377Z,9.98
2023-05-24T04:43:15.842Z,10.00
2023-05-24T04:45:47.457Z,9.98
2023-05-24T04:48:19.489Z,9.91
2023-05-24T04:50:52.227Z,9.80
2023-05-24T04:53:24.121Z,9.87
2023-05-24T04:55:55.485Z,9.85
2023-05-24T04:58:26.835Z,9.89
2023-05-24T05:00:58.207Z,9.85
2023-05-24T05:03:29.577Z,9.82
2023-05-24T05:06:01.105Z,9.83
2023-05-24T05:08:33.543Z,9.82
2023-05-24T05:11:04.894Z,9.89
2023-05-24T05:13:36.241Z,9.95
2023-05-24T05:16:07.699Z,9.87
2023-05-24T05:18:39.115Z,9.86
2023-05-24T05:21:10.743Z,9.94
2023-05-24T05:23:42.056Z,9.97
2023-05-24T05:26:13.392Z,9.93
2023-05-24T05:28:44.693Z,10.07
2023-05-24T05:31:16.280Z,10.00
2023-05-24T05:33:47.707Z,10.08
2023-05-24T05:36:19.364Z,10.17
2023-05-24T05:38:50.719Z,10.22
2023-05-24T05:41:22.422Z,10.28
2023-05-24T05:43:53.740Z,10.30
2023-05-24T05:46:25.112Z,10.23
2023-05-24T05:48:56.500Z,10.39
2023-05-24T05:51:27.943Z,10.47
2023-05-24T05:53:59.316Z,10.55
2023-05-24T05:56:30.718Z,10.57
2023-05-24T05:59:02.041Z,10.55
2023-05-24T06:01:33.423Z,10.57
2023-05-24T06:04:04.936Z,10.45
2023-05-24T06:06:36.372Z,10.62
2023-05-24T06:09:08.316Z,10.59
2023-05-24T06:11:42.967Z,10.60
2023-05-24T06:14:18.497Z,10.70
2023-05-24T06:16:50.162Z,10.76
2023-05-24T06:19:21.713Z,10.61
2023-05-24T06:21:54.139Z,10.76
2023-05-24T06:24:25.924Z,10.73
2023-05-24T06:26:57.981Z,10.72
2023-05-24T06:29:29.295Z,10.68
2023-05-24T06:32:00.787Z,10.56
2023-05-24T06:34:32.131Z,10.60
2023-05-24T06:37:03.830Z,10.58
2023-05-24T06:39:35.151Z,10.66
2023-05-24T06:42:06.692Z,10.66
2023-05-24T06:44:38.029Z,10.68
2023-05-24T06:47:09.576Z,10.60
2023-05-24T06:49:41.841Z,10.73
2023-05-24T06:52:13.772Z,10.52
2023-05-24T06:54:45.384Z,10.89
2023-05-24T06:57:16.687Z,11.04
2023-05-24T06:59:47.995Z,11.11
2023-05-24T07:02:23.974Z,11.30
2023-05-24T07:04:55.569Z,11.44
2023-05-24T07:07:26.980Z,11.47
2023-05-24T07:09:58.306Z,11.57
2023-05-24T07:12:29.677Z,11.71
2023-05-24T07:15:01.124Z,11.83
2023-05-24T07:17:32.901Z,11.87
2023-05-24T07:20:09.515Z,12.03
2023-05-24T07:22:41.278Z,12.05
2023-05-24T07:25:12.702Z,12.11
2023-05-24T07:27:44.076Z,12.11
2023-05-24T07:30:27.723Z,11.98
2023-05-24T07:33:03.214Z,12.25
2023-05-24T07:35:35.052Z,12.55
2023-05-24T07:38:06.916Z,12.70
2023-05-24T07:40:38.280Z,12.80
2023-05-24T07:43:09.646Z,12.91
2023-05-24T07:45:41.231Z,12.93
2023-05-24T07:48:12.787Z,12.82
2023-05-24T07:50:48.407Z,12.73
2023-05-24T07:53:19.946Z,12.49
2023-05-24T07:55:51.666Z,12.49
2023-05-24T07:58:23.035Z,12.55
2023-05-24T08:00:54.416Z,12.55
2023-05-24T08:03:25.932Z,12.49
2023-05-24T08:05:57.911Z,12.50
2023-05-24T08:08:29.580Z,12.58
2023-05-24T08:11:01.083Z,12.60
2023-05-24T08:13:32.406Z,12.77
2023-05-24T08:16:03.859Z,12.84
2023-05-24T08:18:35.334Z,12.86
2023-05-24T08:21:06.859Z,12.93
2023-05-24T08:23:38.372Z,12.87
2023-05-24T08:26:09.831Z,12.86
2023-05-24T08:28:41.242Z,13.24
2023-05-24T08:31:12.692Z,13.27
2023-05-24T08:33:44.612Z,13.30
2023-05-24T08:36:19.650Z,13.32
2023-05-24T08:38:51.025Z,13.39
2023-05-24T08:41:22.577Z,13.36
2023-05-24T08:43:58.605Z,13.48
2023-05-24T08:46:30.638Z,13.47
2023-05-24T08:49:07.428Z,13.31
2023-05-24T08:51:39.774Z,13.55
2023-05-24T08:54:13.613Z,13.53
2023-05-24T08:56:45.111Z,13.46
2023-05-24T08:59:17.985Z,13.44
2023-05-24T09:01:53.764Z,13.41
2023-05-24T09:04:27.559Z,13.47
2023-05-24T09:06:59.829Z,13.47
2023-05-24T09:09:34.224Z,13.32
2023-05-24T09:12:08.495Z,13.34
2023-05-24T09:14:45.444Z,13.29
2023-05-24T09:17:16.989Z,13.21
2023-05-24T09:19:51.614Z,13.20
2023-05-24T09:22:25.930Z,13.29
2023-05-24T09:25:01.543Z,13.32
2023-05-24T09:27:34.982Z,13.24
2023-05-24T09:30:15.481Z,13.02
2023-05-24T09:33:00.866Z,12.92
2023-05-24T09:35:32.570Z,12.81
2023-05-24T09:38:03.999Z,12.82
2023-05-24T09:40:35.373Z,12.83
2023-05-24T09:43:09.523Z,12.89
2023-05-24T09:45:46.658Z,13.04
2023-05-24T09:48:20.486Z,12.93
2023-05-24T09:51:05.241Z,12.86
2023-05-24T09:53:37.076Z,12.86
2023-05-24T09:56:09.794Z,13.03
2023-05-24T09:58:42.235Z,13.39
2023-05-24T10:01:17.879Z,13.87
2023-05-24T10:03:54.334Z,14.20
2023-05-24T10:06:25.858Z,14.52
2023-05-24T10:08:58.063Z,14.71
2023-05-24T10:11:29.634Z,14.68
2023-05-24T10:14:00.976Z,14.45
2023-05-24T10:16:32.906Z,14.46
2023-05-24T10:19:05.982Z,14.35
2023-05-24T10:21:42.093Z,14.31
2023-05-24T10:24:13.863Z,14.33
2023-05-24T10:26:48.719Z,14.36
2023-05-24T10:29:34.809Z,14.48
2023-05-24T10:32:06.710Z,14.71
2023-05-24T10:34:39.111Z,14.84
2023-05-24T10:37:10.671Z,15.00
2023-05-24T10:39:42.068Z,15.22
2023-05-24T10:42:13.634Z,15.33
2023-05-24T10:44:45.286Z,15.25
2023-05-24T10:47:20.063Z,15.17
2023-05-24T10:49:55.110Z,15.22
2023-05-24T10:52:36.153Z,15.26
2023-05-24T10:55:09.623Z,15.45
2023-05-24T10:57:41.678Z,15.58
2023-05-24T11:00:34.754Z,15.47
2023-05-24T11:03:09.089Z,15.33
2023-05-24T11:05:47.760Z,15.42
2023-05-24T11:08:29.425Z,15.32
2023-05-24T11:11:24.528Z,15.04
2023-05-24T11:13:57.850Z,14.54
2023-05-24T11:16:37.372Z,14.50
2023-05-24T11:19:29.097Z,14.49
2023-05-24T11:22:02.817Z,14.40
2023-05-24T11:24:34.586Z,14.22
2023-05-24T11:27:06.885Z,14.35
2023-05-24T11:29:43.308Z,14.35
2023-05-24T11:32:16.788Z,14.53
2023-05-24T11:34:49.498Z,14.63
2023-05-24T11:37:28.626Z,14.82
2023-05-24T11:40:09.979Z,14.98
2023-05-24T11:42:41.704Z,15.05
2023-05-24T11:45:16.395Z,15.42
2023-05-24T11:47:49.186Z,15.85
2023-05-24T11:50:25.252Z,16.14
2023-05-24T11:53:04.131Z,16.21
2023-05-24T11:55:36.639Z,16.03
2023-05-24T11:58:19.295Z,15.90
2023-05-24T12:00:51.460Z,15.84
2023-05-24T12:03:22.997Z,15.60
2023-05-24T12:05:57.225Z,15.37
2023-05-24T12:08:28.525Z,15.37
2023-05-24T12:10:59.996Z,15.44
2023-05-24T12:13:31.403Z,15.56
2023-05-24T12:16:02.888Z,15.73
2023-05-24T12:18:34.282Z,15.87
2023-05-24T12:21:11.235Z,16.08
2023-05-24T12:23:42.531Z,16.34
2023-05-24T12:26:14.744Z,16.58
2023-05-24T12:28:52.585Z,16.74
2023-05-24T12:31:24.078Z,16.79
2023-05-24T12:33:55.623Z,16.74
2023-05-24T12:36:29.413Z,16.60
2023-05-24T12:39:04.889Z,16.52
2023-05-24T12:41:36.425Z,16.34
2023-05-24T12:44:09.809Z,16.20
2023-05-24T12:46:41.193Z,16.18
2023-05-24T12:49:12.769Z,16.20
2023-05-24T12:51:44.658Z,16.22
2023-05-24T12:54:19.596Z,16.32
2023-05-24T12:56:55.609Z,16.60
2023-05-24T12:59:28.434Z,16.86
2023-05-24T13:02:00.618Z,17.27
2023-05-24T13:04:33.622Z,17.57
2023-05-24T13:07:05.544Z,17.93
2023-05-24T13:09:36.948Z,17.91
2023-05-24T13:12:08.874Z,18.46
2023-05-24T13:14:40.489Z,18.76
2023-05-24T13:17:11.997Z,18.99
2023-05-24T13:19:43.729Z,18.94
2023-05-24T13:22:15.405Z,18.64
2023-05-24T13:24:47.105Z,18.23
2023-05-24T13:27:18.569Z,17.95
2023-05-24T13:30:00.338Z,17.65
2023-05-24T13:32:33.326Z,17.39
2023-05-24T13:35:08.193Z,17.09
2023-05-24T13:37:40.905Z,16.71
2023-05-24T13:40:12.547Z,16.42
2023-05-24T13:42:43.924Z,16.30
2023-05-24T13:45:16.731Z,16.16
2023-05-24T13:47:48.333Z,16.03
2023-05-24T13:50:22.669Z,15.98
2023-05-24T13:52:54.032Z,16.02
2023-05-24T13:55:25.483Z,16.01
2023-05-24T13:57:57.324Z,16.17
2023-05-24T14:00:28.717Z,16.36
2023-05-24T14:03:00.384Z,16.45
2023-05-24T14:05:32.355Z,16.59
2023-05-24T14:08:06.547Z,16.79
2023-05-24T14:10:38.142Z,16.82
2023-05-24T14:15:44.794Z,16.92
2023-05-24T14:18:16.680Z,17.04
2023-05-24T14:20:48.140Z,17.00
2023-05-24T14:23:19.444Z,16.83
2023-05-24T14:25:52.102Z,16.83
2023-05-24T14:28:23.486Z,16.84
2023-05-24T14:30:54.800Z,16.86
2023-05-24T14:33:26.232Z,17.01
2023-05-24T14:35:57.725Z,17.12
2023-05-24T14:38:29.161Z,17.08
2023-05-24T14:41:01.536Z,17.13
2023-05-24T14:43:33.222Z,17.18
2023-05-24T14:46:04.936Z,17.14
2023-05-24T14:48:37.255Z,17.12
2023-05-24T14:51:08.814Z,17.25
2023-05-24T14:53:40.201Z,17.55
2023-05-24T14:56:13.984Z,17.58
2023-05-24T14:58:45.559Z,17.73
2023-05-24T15:01:17.055Z,17.83
2023-05-24T15:03:48.654Z,17.93
2023-05-24T15:06:20.038Z,18.11
2023-05-24T15:08:52.050Z,18.15
2023-05-24T15:11:23.377Z,18.28
2023-05-24T15:13:58.543Z,18.22
2023-05-24T15:16:30.024Z,18.12
2023-05-24T15:19:01.392Z,18.01
2023-05-24T15:21:32.803Z,17.79
2023-05-24T15:24:04.251Z,17.69
2023-05-24T15:26:35.630Z,17.56
2023-05-24T15:29:07.094Z,17.46
2023-05-24T15:31:38.497Z,17.46
2023-05-24T15:34:09.967Z,17.55
2023-05-24T15:36:41.433Z,17.52
2023-05-24T15:39:12.740Z,17.64
2023-05-24T15:41:44.148Z,17.67
2023-05-24T15:44:15.490Z,17.81
2023-05-24T15:46:47.631Z,17.79
2023-05-24T15:49:19.071Z,17.89
2023-05-24T15:54:24.721Z,18.28
2023-05-24T15:56:56.113Z,18.05
2023-05-24T15:59:28.216Z,17.78
2023-05-24T16:01:59.585Z,17.62
2023-05-24T16:04:31.588Z,17.47
2023-05-24T16:07:02.993Z,17.68
2023-05-24T16:09:34.472Z,17.76
2023-05-24T16:14:38.439Z,17.75
2023-05-24T16:17:10.332Z,17.72
2023-05-24T16:19:41.897Z,17.73
2023-05-24T16:22:13.233Z,17.70
2023-05-24T16:24:44.710Z,17.53
2023-05-24T16:27:16.079Z,17.49
2023-05-24T16:29:49.207Z,17.51
2023-05-24T16:32:20.549Z,17.34
2023-05-24T16:34:56.117Z,17.44
2023-05-24T16:37:28.372Z,17.38
2023-05-24T16:40:00.014Z,17.25
2023-05-24T16:42:31.373Z,17.04
2023-05-24T16:45:02.818Z,16.79
2023-05-24T16:47:34.287Z,16.63
2023-05-24T16:50:06.630Z,16.65
2023-05-24T16:52:37.944Z,16.65
2023-05-24T16:55:10.614Z,16.66
2023-05-24T16:57:42.127Z,16.62
2023-05-24T17:00:15.258Z,16.67
2023-05-24T17:02:46.754Z,16.73
2023-05-24T17:05:18.149Z,16.69
2023-05-24T17:07:49.624Z,16.60
2023-05-24T17:10:21.579Z,16.54
2023-05-24T17:12:56.780Z,16.50
2023-05-24T17:15:29.554Z,16.51
2023-05-24T17:18:01.268Z,16.51
2023-05-24T17:20:33.951Z,16.47
2023-05-24T17:23:05.831Z,16.45
2023-05-24T17:25:37.682Z,16.49
2023-05-24T17:28:09.302Z,16.52
2023-05-24T17:30:41.126Z,16.60
2023-05-24T17:33:13.474Z,16.58
2023-05-24T17:35:45.111Z,16.49
2023-05-24T17:38:17.054Z,16.43
2023-05-24T17:40:51.816Z,16.38
2023-05-24T17:43:23.605Z,16.40
2023-05-24T17:46:08.711Z,16.41
2023-05-24T17:48:41.161Z,16.42
2023-05-24T17:51:12.774Z,16.43
2023-05-24T17:53:44.835Z,16.30
2023-05-24T17:56:16.252Z,16.34
2023-05-24T17:58:47.936Z,16.30
2023-05-24T18:01:19.411Z,16.24
2023-05-24T18:03:50.897Z,16.14
2023-05-24T18:06:22.230Z,15.89
2023-05-24T18:08:53.924Z,15.79
2023-05-24T18:11:25.249Z,15.74
2023-05-24T18:13:57.238Z,15.65
2023-05-24T18:16:28.648Z,15.55
2023-05-24T18:19:00.190Z,15.47
2023-05-24T18:21:32.324Z,15.40
2023-05-24T18:24:03.751Z,15.36
2023-05-24T18:26:35.452Z,15.21
2023-05-24T18:29:06.800Z,14.96
2023-05-24T18:31:38.177Z,14.86
2023-05-24T18:34:09.705Z,14.81
2023-05-24T18:36:41.179Z,14.68
2023-05-24T18:39:12.494Z,14.56
2023-05-24T18:41:44.009Z,14.47
2023-05-24T18:44:15.515Z,14.30
2023-05-24T18:46:47.010Z,14.27
2023-05-24T18:49:18.461Z,14.17
2023-05-24T18:51:49.921Z,14.08
2023-05-24T18:54:21.414Z,13.98
2023-05-24T18:56:52.906Z,13.89
2023-05-24T18:59:28.943Z,13.83
2023-05-24T19:02:03.460Z,13.78
2023-05-24T19:04:34.837Z,13.69
2023-05-24T19:07:06.300Z,13.58
2023-05-24T19:09:37.699Z,13.47
2023-05-24T19:12:11.428Z,13.29
2023-05-24T19:14:43.157Z,13.13
2023-05-24T19:17:14.553Z,13.19
2023-05-24T19:19:46.355Z,13.08
2023-05-24T19:22:17.690Z,12.90
2023-05-24T19:24:49.068Z,12.79
2023-05-24T19:27:20.528Z,12.75
2023-05-24T19:29:52.095Z,12.69
2023-05-24T19:32:23.579Z,12.68
2023-05-24T19:34:54.982Z,12.58
2023-05-24T19:37:26.331Z,12.40
2023-05-24T19:39:57.826Z,12.43
2023-05-24T19:42:29.298Z,12.36
2023-05-24T19:45:00.901Z,12.25
2023-05-24T19:47:32.417Z,12.11
2023-05-24T19:50:04.002Z,12.12
2023-05-24T19:52:35.357Z,12.02
2023-05-24T19:55:08.154Z,12.01
2023-05-24T19:57:39.640Z,11.93
2023-05-24T20:00:12.358Z,11.83
2023-05-24T20:02:43.861Z,11.68
2023-05-24T20:05:17.248Z,11.59
2023-05-24T20:07:48.599Z,11.64
2023-05-24T20:10:20.052Z,11.59
2023-05-24T20:12:51.598Z,11.48
2023-05-24T20:15:27.583Z,11.45
2023-05-24T20:17:59.281Z,11.33
2023-05-24T20:20:31.025Z,11.34
2023-05-24T20:23:02.527Z,11.29
2023-05-24T20:25:33.856Z,11.21
2023-05-24T20:28:12.790Z,11.17
2023-05-24T20:30:50.234Z,11.00
2023-05-24T20:33:21.634Z,11.01
2023-05-24T20:35:54.392Z,10.87
2023-05-24T20:38:25.737Z,10.96
2023-05-24T20:40:57.110Z,10.87
2023-05-24T20:43:28.434Z,10.87
2023-05-24T20:46:00.039Z,10.82
2023-05-24T20:48:31.454Z,10.77
2023-05-24T20:51:03.382Z,10.71
2023-05-24T20:53:34.949Z,10.66
2023-05-24T20:56:06.448Z,10.58
2023-05-24T20:58:39.710Z,10.53
2023-05-24T21:01:11.255Z,10.48
2023-05-24T21:03:42.649Z,10.44
2023-05-24T21:06:14.185Z,10.32
2023-05-24T21:08:45.755Z,10.36
2023-05-24T21:11:17.213Z,10.25
2023-05-24T21:13:48.536Z,10.24
2023-05-24T21:16:19.910Z,10.08
2023-05-24T21:18:51.729Z,10.09
2023-05-24T21:21:23.620Z,10.16
2023-05-24T21:23:55.628Z,10.13
2023-05-24T21:26:27.098Z,10.13
2023-05-24T21:28:58.457Z,10.09
2023-05-24T21:31:30.241Z,10.06
2023-05-24T21:34:01.643Z,10.07
2023-05-24T21:36:33.143Z,10.12
2023-05-24T21:39:07.951Z,10.19
2023-05-24T21:41:39.337Z,10.21
2023-05-24T21:44:10.911Z,10.34
2023-05-24T21:46:42.320Z,10.37
2023-05-24T21:49:13.708Z,10.49
2023-05-24T21:51:45.211Z,10.46
2023-05-24T21:54:16.661Z,10.55
2023-05-24T21:56:48.030Z,10.69
2023-05-24T21:59:21.189Z,10.67
2023-05-24T22:01:52.654Z,10.70
2023-05-24T22:04:24.065Z,10.75
2023-05-24T22:06:55.502Z,10.88
2023-05-24T22:09:26.842Z,10.81
2023-05-24T22:11:58.170Z,10.94
2023-05-24T22:14:29.563Z,10.93
2023-05-24T22:17:00.936Z,10.92
2023-05-24T22:19:39.577Z,10.82
2023-05-24T22:22:12.393Z,10.82
2023-05-24T22:24:43.883Z,10.82
2023-05-24T22:27:16.871Z,10.68
2023-05-24T22:29:48.219Z,10.82
2023-05-24T22:32:19.629Z,10.79
2023-05-24T22:34:51.032Z,10.86
2023-05-24T22:37:22.364Z,10.89
2023-05-24T22:39:53.672Z,10.89
2023-05-24T22:42:25.067Z,10.90
2023-05-24T22:44:56.421Z,10.91
2023-05-24T22:47:28.692Z,10.87
2023-05-24T22:50:01.887Z,10.99
2023-05-24T22:52:36.432Z,10.95
2023-05-24T22:55:08.428Z,10.94
2023-05-24T22:57:39.796Z,11.03
2023-05-24T23:00:11.886Z,11.06
2023-05-24T23:02:43.296Z,11.07
2023-05-24T23:05:14.831Z,11.07
2023-05-24T23:07:48.446Z,11.06
2023-05-24T23:10:19.843Z,11.04
2023-05-24T23:12:51.638Z,10.97
2023-05-24T23:15:22.964Z,11.05
2023-05-24T23:17:56.317Z,10.98
2023-05-24T23:20:27.737Z,11.03
2023-05-24T23:23:02.553Z,11.16
2023-05-24T23:25:34.733Z,11.14
2023-05-24T23:28:06.485Z,11.10
2023-05-24T23:30:37.842Z,11.17
2023-05-24T23:33:09.334Z,11.13
2023-05-24T23:35:40.767Z,11.12
2023-05-24T23:38:13.615Z,11.01
2023-05-24T23:40:44.948Z,11.16
2023-05-24T23:43:16.512Z,11.20
2023-05-24T23:45:47.838Z,11.18
2023-05-24T23:48:20.400Z,11.16
2023-05-24T23:50:54.349Z,11.18
2023-05-24T23:53:26.228Z,11.17
2023-05-24T23:55:57.553Z,11.13
2023-05-24T23:58:28.915Z,11.13
